Time;durP1;ratioP1;P1;durP2;ratioP2;P2;SDS_P1;SDS_P2;PMS_P1;PMS_P2;Temp;Humidity;BMP_temperature;BMP_pressure;BME280_temperature;BME280_humidity;BME280_pressure;Samples;Min_cycle;Max_cycle;Signal;HPM_P1;HPM_P2
2023/01/25 00:00:28;;;;;;;17.67;8.33;;;4.50;99.90;;;;;;4936246;28;20359;-90
2023/01/25 00:02:54;;;;;;;18.13;8.40;;;4.50;99.90;;;;;;4934750;28;20027;-90
2023/01/25 00:05:20;;;;;;;18.58;8.27;;;4.50;99.90;;;;;;4883713;28;20081;-90
2023/01/25 00:07:45;;;;;;;20.03;8.97;;;4.50;99.90;;;;;;4933361;28;20323;-90
2023/01/25 00:10:11;;;;;;;18.25;8.70;;;4.50;99.90;;;;;;4930049;28;20033;-90
2023/01/25 00:12:37;;;;;;;18.73;8.73;;;4.50;99.90;;;;;;4928076;28;20110;-90
2023/01/25 00:15:03;;;;;;;18.87;8.73;;;4.50;99.90;;;;;;4947942;28;20027;-90
2023/01/25 00:17:28;;;;;;;17.93;8.17;;;4.40;99.90;;;;;;4919882;28;20499;-90
2023/01/25 00:19:54;;;;;;;21.45;8.95;;;4.40;99.90;;;;;;4908078;28;20038;-90
2023/01/25 00:22:20;;;;;;;17.87;8.50;;;4.50;99.90;;;;;;4908372;28;20383;-89
2023/01/25 00:24:46;;;;;;;20.40;8.52;;;4.40;99.90;;;;;;4922569;28;20196;-90
2023/01/25 00:27:11;;;;;;;17.55;7.95;;;4.40;99.90;;;;;;4937821;28;20526;-90
2023/01/25 00:29:37;;;;;;;22.17;9.80;;;4.40;99.90;;;;;;4919279;28;20346;-89
2023/01/25 00:32:26;;;;;;;17.70;8.50;;;4.40;99.90;;;;;;4926659;28;20145;-90
2023/01/25 00:34:51;;;;;;;17.77;8.50;;;4.40;99.90;;;;;;4925211;28;20302;-90
2023/01/25 00:37:27;;;;;;;18.35;7.90;;;4.30;99.90;;;;;;4914422;28;20099;-90
2023/01/25 00:39:52;;;;;;;17.98;8.32;;;4.30;99.90;;;;;;4918263;28;20083;-90
2023/01/25 00:42:20;;;;;;;19.30;7.68;;;4.40;99.90;;;;;;4924106;28;20049;-90
2023/01/25 00:44:47;;;;;;;19.10;8.80;;;4.30;99.90;;;;;;4915327;28;21182;-90
2023/01/25 00:47:13;;;;;;;19.02;8.80;;;4.30;99.90;;;;;;4948391;28;20251;-90
2023/01/25 00:49:40;;;;;;;15.68;7.70;;;4.30;99.90;;;;;;4909158;28;21391;-90
2023/01/25 00:52:07;;;;;;;17.58;7.72;;;4.30;99.90;;;;;;4946052;28;20043;-90
2023/01/25 00:54:33;;;;;;;19.13;8.63;;;4.40;99.90;;;;;;4927110;28;20026;-90
2023/01/25 00:56:58;;;;;;;19.17;8.17;;;4.30;99.90;;;;;;4920390;28;20039;-90
2023/01/25 00:59:24;;;;;;;18.65;8.25;;;4.40;99.90;;;;;;4907170;28;20360;-90
2023/01/25 01:01:51;;;;;;;17.23;7.83;;;4.40;99.90;;;;;;4931943;28;20553;-89
2023/01/25 01:04:18;;;;;;;18.35;8.27;;;4.30;99.90;;;;;;4953069;28;20112;-90
2023/01/25 01:06:44;;;;;;;17.52;8.05;;;4.40;99.90;;;;;;4912645;28;20054;-90
2023/01/25 01:09:15;;;;;;;21.23;9.03;;;4.30;99.90;;;;;;4917998;28;20120;-90
2023/01/25 01:11:42;;;;;;;18.05;8.52;;;4.40;99.90;;;;;;4950185;28;20245;-90
2023/01/25 01:14:08;;;;;;;18.63;8.27;;;4.30;99.90;;;;;;4944119;28;20621;-90
2023/01/25 01:16:34;;;;;;;17.98;8.20;;;4.30;99.90;;;;;;4933613;28;20389;-90
2023/01/25 01:19:00;;;;;;;17.90;8.30;;;4.30;99.90;;;;;;4936490;28;20046;-90
2023/01/25 01:21:25;;;;;;;18.80;8.18;;;4.40;99.90;;;;;;4938841;28;20034;-90
2023/01/25 01:23:53;;;;;;;18.35;8.60;;;4.30;99.90;;;;;;4950881;28;20065;-90
2023/01/25 01:26:19;;;;;;;19.50;8.63;;;4.40;99.90;;;;;;4925876;28;20081;-90
2023/01/25 01:28:45;;;;;;;17.67;8.27;;;4.40;99.90;;;;;;4948887;28;20073;-90
2023/01/25 01:31:15;;;;;;;19.70;8.25;;;4.30;99.90;;;;;;4941867;28;20113;-90
2023/01/25 01:33:41;;;;;;;19.73;8.93;;;4.30;99.90;;;;;;4938775;28;20249;-89
2023/01/25 01:36:13;;;;;;;18.97;8.73;;;4.30;99.90;;;;;;4923415;28;20146;-90
2023/01/25 01:38:39;;;;;;;21.20;9.60;;;4.30;99.90;;;;;;4929347;28;20248;-90
2023/01/25 01:41:05;;;;;;;21.17;9.23;;;4.30;99.90;;;;;;4902936;28;20031;-90
2023/01/25 01:43:31;;;;;;;16.87;7.63;;;4.30;99.90;;;;;;4916557;28;20089;-90
2023/01/25 01:46:00;;;;;;;18.95;8.68;;;4.30;99.90;;;;;;4910038;28;20047;-90
2023/01/25 01:48:44;;;;;;;18.42;8.10;;;4.30;99.90;;;;;;4919051;28;20297;-89
2023/01/25 01:51:15;;;;;;;19.38;7.95;;;4.30;99.90;;;;;;4917789;28;20036;-90
2023/01/25 01:53:47;;;;;;;18.10;8.18;;;4.20;99.90;;;;;;4909127;28;20219;-90
2023/01/25 01:56:17;;;;;;;19.10;8.20;;;4.20;99.90;;;;;;4893356;28;20035;-90
2023/01/25 01:58:43;;;;;;;20.25;9.18;;;4.20;99.90;;;;;;4947474;28;20018;-90
2023/01/25 02:01:10;;;;;;;18.05;7.60;;;4.20;99.90;;;;;;4905451;28;20031;-87
2023/01/25 02:03:36;;;;;;;20.63;8.68;;;4.20;99.90;;;;;;4947437;28;20121;-88
2023/01/25 02:06:09;;;;;;;19.90;8.98;;;4.10;99.90;;;;;;4918014;28;20054;-88
2023/01/25 02:08:35;;;;;;;18.53;8.13;;;4.10;99.90;;;;;;4936101;28;20190;-87
2023/01/25 02:11:03;;;;;;;20.00;8.57;;;4.10;99.90;;;;;;4930054;28;20118;-87
2023/01/25 02:13:30;;;;;;;19.38;8.68;;;4.10;99.90;;;;;;4880892;28;20126;-88
2023/01/25 02:15:57;;;;;;;17.67;8.18;;;4.10;99.90;;;;;;4907907;28;20058;-88
2023/01/25 02:18:24;;;;;;;17.08;7.93;;;4.10;99.90;;;;;;4913778;28;20132;-88
2023/01/25 02:20:53;;;;;;;18.63;8.33;;;4.10;99.90;;;;;;4918634;28;20026;-88
2023/01/25 02:23:46;;;;;;;20.15;8.55;;;4.10;99.90;;;;;;4925379;28;20138;-88
2023/01/25 02:26:13;;;;;;;20.20;8.93;;;4.20;99.90;;;;;;4933162;28;20117;-88
2023/01/25 02:28:46;;;;;;;18.50;7.95;;;4.10;99.90;;;;;;4892047;28;20038;-88
2023/01/25 02:31:12;;;;;;;18.48;8.18;;;4.10;99.90;;;;;;4932077;28;20034;-87
2023/01/25 02:33:38;;;;;;;17.10;7.90;;;4.10;99.90;;;;;;4933821;28;20404;-88
2023/01/25 02:36:04;;;;;;;15.82;6.63;;;4.10;99.90;;;;;;4938750;28;20027;-87
2023/01/25 02:38:33;;;;;;;18.70;8.40;;;4.10;99.90;;;;;;4948160;28;20041;-88
2023/01/25 02:41:16;;;;;;;18.52;7.82;;;4.10;99.90;;;;;;4930403;28;20061;-88
2023/01/25 02:43:42;;;;;;;19.27;7.90;;;4.10;99.90;;;;;;4898821;28;20042;-88
2023/01/25 02:46:21;;;;;;;16.77;7.37;;;4.10;99.90;;;;;;4945556;28;20034;-88
2023/01/25 02:48:47;;;;;;;17.83;7.82;;;4.10;99.90;;;;;;4939485;28;20037;-88
2023/01/25 02:51:13;;;;;;;18.50;7.43;;;4.10;99.90;;;;;;4947258;28;20570;-88
2023/01/25 02:53:39;;;;;;;20.40;8.52;;;4.10;99.90;;;;;;4923529;28;20020;-87
2023/01/25 02:56:05;;;;;;;17.77;8.10;;;4.10;99.90;;;;;;4927887;28;20439;-87
2023/01/25 02:58:31;;;;;;;19.67;9.33;;;4.10;99.90;;;;;;4887679;28;20576;-88
2023/01/25 03:00:58;;;;;;;17.27;7.55;;;4.10;99.90;;;;;;4917173;28;20034;-88
2023/01/25 03:03:24;;;;;;;16.08;7.20;;;4.10;99.90;;;;;;4919101;28;20539;-88
2023/01/25 03:05:50;;;;;;;17.95;7.97;;;4.10;99.90;;;;;;4954773;28;20037;-88
2023/01/25 03:08:16;;;;;;;18.70;8.30;;;4.10;99.90;;;;;;4920136;28;20023;-88
2023/01/25 03:10:42;;;;;;;16.65;7.00;;;4.00;99.90;;;;;;4913455;28;20027;-87
2023/01/25 03:13:07;;;;;;;20.00;9.03;;;4.00;99.90;;;;;;4898472;28;20041;-87
2023/01/25 03:15:33;;;;;;;19.10;8.65;;;4.00;99.90;;;;;;4931203;28;20258;-87
2023/01/25 03:17:59;;;;;;;18.83;7.70;;;4.00;99.90;;;;;;4940581;28;20086;-87
2023/01/25 03:20:24;;;;;;;19.58;8.13;;;4.00;99.90;;;;;;4936211;28;20315;-88
2023/01/25 03:22:50;;;;;;;21.47;8.70;;;4.00;99.90;;;;;;4922293;28;20281;-88
2023/01/25 03:25:16;;;;;;;22.30;9.38;;;4.00;99.90;;;;;;4938629;28;20041;-88
2023/01/25 03:27:42;;;;;;;18.80;7.93;;;4.00;99.90;;;;;;4936903;28;20038;-88
2023/01/25 03:30:09;;;;;;;20.88;8.38;;;4.00;99.90;;;;;;4893643;28;20030;-88
2023/01/25 03:32:34;;;;;;;21.90;8.73;;;4.00;99.90;;;;;;4935906;28;20109;-88
2023/01/25 03:35:00;;;;;;;17.87;7.43;;;4.00;99.90;;;;;;4913109;28;20597;-87
2023/01/25 03:37:28;;;;;;;20.40;8.60;;;4.00;99.90;;;;;;4935215;28;20027;-88
2023/01/25 03:39:55;;;;;;;18.50;8.17;;;4.00;99.90;;;;;;4940887;28;20052;-88
2023/01/25 03:42:21;;;;;;;20.00;8.05;;;4.00;99.90;;;;;;4909957;28;20850;-88
2023/01/25 03:44:47;;;;;;;19.90;8.15;;;4.00;99.90;;;;;;4894441;28;20031;-88
2023/01/25 03:47:12;;;;;;;18.83;8.23;;;4.00;99.90;;;;;;4915043;28;20031;-88
2023/01/25 03:49:38;;;;;;;20.45;8.05;;;4.00;99.90;;;;;;4911588;28;20076;-88
2023/01/25 03:52:04;;;;;;;19.73;8.43;;;3.90;99.90;;;;;;4915916;28;20038;-88
2023/01/25 03:54:30;;;;;;;21.17;8.23;;;3.90;99.90;;;;;;4932633;28;20034;-88
2023/01/25 03:56:56;;;;;;;20.25;8.70;;;3.90;99.90;;;;;;4904514;28;20506;-88
2023/01/25 03:59:22;;;;;;;21.38;8.23;;;3.90;99.90;;;;;;4917140;28;20023;-88
2023/01/25 04:01:48;;;;;;;21.23;8.27;;;3.90;99.90;;;;;;4918471;28;20027;-88
2023/01/25 04:04:13;;;;;;;20.23;8.27;;;3.90;99.90;;;;;;4936228;28;20904;-88
2023/01/25 04:06:39;;;;;;;21.10;8.43;;;3.90;99.90;;;;;;4920120;28;20039;-88
2023/01/25 04:09:06;;;;;;;21.50;9.15;;;3.90;99.90;;;;;;4915057;28;20232;-88
2023/01/25 04:11:32;;;;;;;22.13;8.55;;;3.90;99.90;;;;;;4927892;28;20075;-88
2023/01/25 04:13:57;;;;;;;22.20;9.43;;;3.90;99.90;;;;;;4902098;28;20218;-88
2023/01/25 04:16:23;;;;;;;22.47;8.93;;;3.90;99.90;;;;;;4900423;28;20038;-88
2023/01/25 04:18:49;;;;;;;22.80;8.95;;;3.90;99.90;;;;;;4915042;28;20031;-88
2023/01/25 04:21:15;;;;;;;20.20;8.53;;;3.90;99.90;;;;;;4917986;28;20065;-88
2023/01/25 04:23:40;;;;;;;15.27;6.22;;;3.90;99.90;;;;;;4937750;28;20499;-87
2023/01/25 04:26:11;;;;;;;24.37;9.80;;;3.90;99.90;;;;;;4916988;28;20475;-87
2023/01/25 04:28:37;;;;;;;24.88;10.40;;;3.90;99.90;;;;;;4927099;28;20034;-88
2023/01/25 04:31:04;;;;;;;24.50;10.32;;;3.90;99.90;;;;;;4895343;28;20268;-88
2023/01/25 04:33:31;;;;;;;24.10;10.15;;;3.90;99.90;;;;;;4940129;28;20078;-88
2023/01/25 04:35:56;;;;;;;25.03;9.57;;;3.90;99.90;;;;;;4908797;28;20034;-88
2023/01/25 04:38:23;;;;;;;24.65;9.73;;;3.90;99.90;;;;;;4938262;28;21473;-88
2023/01/25 04:40:50;;;;;;;23.27;9.43;;;3.80;99.90;;;;;;4919055;28;20352;-88
2023/01/25 04:43:17;;;;;;;22.48;9.02;;;3.80;99.90;;;;;;4921117;28;20403;-88
2023/01/25 04:45:44;;;;;;;21.70;8.73;;;3.90;99.90;;;;;;4902909;28;20450;-88
2023/01/25 04:48:12;;;;;;;23.73;8.75;;;3.90;99.90;;;;;;4916404;28;20384;-88
2023/01/25 04:50:42;;;;;;;21.13;9.05;;;3.80;99.90;;;;;;4920058;28;20639;-87
2023/01/25 04:53:09;;;;;;;22.13;9.05;;;3.80;99.90;;;;;;4918781;28;20686;-88
2023/01/25 04:55:35;;;;;;;24.38;10.52;;;3.80;99.90;;;;;;4953840;28;20038;-88
2023/01/25 04:58:03;;;;;;;20.50;8.27;;;3.80;99.90;;;;;;4922512;28;20328;-88
2023/01/25 05:00:30;;;;;;;20.75;8.75;;;3.80;99.90;;;;;;4911794;28;20027;-88
2023/01/25 05:02:55;;;;;;;19.70;8.00;;;3.80;99.90;;;;;;4898031;28;20181;-88
2023/01/25 05:05:21;;;;;;;23.60;9.45;;;3.80;99.90;;;;;;4954131;28;20169;-88
2023/01/25 05:07:47;;;;;;;21.03;8.13;;;3.80;99.90;;;;;;4924146;28;20126;-88
2023/01/25 05:10:13;;;;;;;20.52;8.77;;;3.80;99.90;;;;;;4938760;28;20070;-88
2023/01/25 05:12:39;;;;;;;20.03;8.40;;;3.80;99.90;;;;;;4939666;28;20106;-88
2023/01/25 05:15:05;;;;;;;20.77;8.48;;;3.80;99.90;;;;;;4926294;28;20031;-87
2023/01/25 05:17:31;;;;;;;19.52;8.18;;;3.80;99.90;;;;;;4913624;28;20029;-88
2023/01/25 05:19:57;;;;;;;20.43;8.27;;;3.80;99.90;;;;;;4913187;28;20039;-88
2023/01/25 05:22:23;;;;;;;21.17;8.70;;;3.80;99.90;;;;;;4915521;28;20069;-88
2023/01/25 05:24:48;;;;;;;20.00;7.90;;;3.80;99.90;;;;;;4916900;28;20636;-88
2023/01/25 05:27:16;;;;;;;22.50;9.77;;;3.80;99.90;;;;;;4919996;28;20510;-88
2023/01/25 05:29:44;;;;;;;21.13;8.85;;;3.80;99.90;;;;;;4917765;28;20035;-88
2023/01/25 05:32:13;;;;;;;22.37;8.90;;;3.80;99.90;;;;;;4909596;28;20293;-86
2023/01/25 05:34:40;;;;;;;18.42;7.60;;;3.80;99.90;;;;;;4909958;28;20383;-86
2023/01/25 05:37:07;;;;;;;18.42;7.63;;;3.80;99.90;;;;;;4907767;28;20596;-86
2023/01/25 05:39:33;;;;;;;20.58;8.60;;;3.80;99.90;;;;;;4937948;28;20438;-86
2023/01/25 05:41:59;;;;;;;20.67;8.43;;;3.80;99.90;;;;;;4941604;28;20552;-86
2023/01/25 05:44:26;;;;;;;23.00;9.63;;;3.80;99.90;;;;;;4936099;28;20557;-86
2023/01/25 05:46:52;;;;;;;22.75;9.32;;;3.70;99.90;;;;;;4920584;28;20487;-88
2023/01/25 05:49:18;;;;;;;22.35;8.60;;;3.80;99.90;;;;;;4947531;28;20030;-87
2023/01/25 05:51:44;;;;;;;21.77;8.57;;;3.80;99.90;;;;;;4909175;28;20042;-88
2023/01/25 05:54:16;;;;;;;19.90;8.50;;;3.70;99.90;;;;;;4913140;28;20212;-88
2023/01/25 05:56:42;;;;;;;21.48;8.85;;;3.70;99.90;;;;;;4933332;28;20026;-86
2023/01/25 05:59:09;;;;;;;21.58;9.52;;;3.70;99.90;;;;;;4952507;28;20110;-86
2023/01/25 06:01:35;;;;;;;19.98;8.18;;;3.70;99.90;;;;;;4920630;28;20788;-86
2023/01/25 06:04:01;;;;;;;21.30;8.50;;;3.70;99.90;;;;;;4940333;28;20030;-86
2023/01/25 06:06:27;;;;;;;19.80;7.90;;;3.70;99.90;;;;;;4908912;28;20031;-86
2023/01/25 06:08:53;;;;;;;20.50;9.00;;;3.70;99.90;;;;;;4898290;28;20117;-86
2023/01/25 06:11:21;;;;;;;20.77;8.67;;;3.70;99.90;;;;;;4932654;28;20332;-86
2023/01/25 06:13:48;;;;;;;22.73;8.82;;;3.70;99.90;;;;;;4918943;28;20084;-86
2023/01/25 06:16:15;;;;;;;22.50;9.35;;;3.70;99.90;;;;;;4954971;28;20325;-86
2023/01/25 06:18:41;;;;;;;21.83;9.40;;;3.70;99.90;;;;;;4944974;28;20019;-86
2023/01/25 06:21:07;;;;;;;18.52;7.75;;;3.70;99.90;;;;;;4911633;28;22001;-86
2023/01/25 06:23:33;;;;;;;20.57;8.63;;;3.70;99.90;;;;;;4919603;28;20455;-86
2023/01/25 06:26:00;;;;;;;21.27;8.25;;;3.70;99.90;;;;;;4910522;28;20565;-86
2023/01/25 06:28:30;;;;;;;20.15;8.75;;;3.70;99.90;;;;;;4941030;28;20488;-86
2023/01/25 06:31:01;;;;;;;20.40;8.57;;;3.70;99.90;;;;;;4907482;28;20034;-86
2023/01/25 06:33:27;;;;;;;22.37;9.00;;;3.70;99.90;;;;;;4944502;28;20086;-86
2023/01/25 06:35:57;;;;;;;19.35;8.18;;;3.70;99.90;;;;;;4917753;28;20023;-86
2023/01/25 06:38:23;;;;;;;19.92;8.63;;;3.60;99.90;;;;;;4917445;28;20596;-86
2023/01/25 06:40:49;;;;;;;19.67;8.37;;;3.70;99.90;;;;;;4905810;28;20027;-86
2023/01/25 06:43:15;;;;;;;19.88;8.38;;;3.70;99.90;;;;;;4954939;28;20109;-86
2023/01/25 06:45:40;;;;;;;19.60;8.40;;;3.70;99.90;;;;;;4952434;28;20023;-86
2023/01/25 06:48:06;;;;;;;20.85;8.70;;;3.60;99.90;;;;;;4937862;28;20030;-86
2023/01/25 06:50:32;;;;;;;18.33;7.33;;;3.70;99.90;;;;;;4926383;28;20039;-86
2023/01/25 06:52:57;;;;;;;15.85;6.57;;;3.60;99.90;;;;;;4914716;28;21422;-86
2023/01/25 06:55:23;;;;;;;21.00;8.27;;;3.60;99.90;;;;;;4910445;28;20011;-86
2023/01/25 06:57:49;;;;;;;17.35;7.38;;;3.60;99.90;;;;;;4932867;28;20027;-85
2023/01/25 07:00:16;;;;;;;19.25;8.32;;;3.60;99.90;;;;;;4953709;28;20055;-86
2023/01/25 07:02:42;;;;;;;19.85;8.50;;;3.60;99.90;;;;;;4919382;28;20033;-86
2023/01/25 07:05:08;;;;;;;19.53;8.57;;;3.60;99.90;;;;;;4910045;28;20345;-86
2023/01/25 07:07:34;;;;;;;21.48;8.27;;;3.60;99.90;;;;;;4921628;28;20014;-86
2023/01/25 07:10:00;;;;;;;25.48;9.73;;;3.60;99.90;;;;;;4894264;28;20105;-86
2023/01/25 07:12:29;;;;;;;22.90;9.10;;;3.60;99.90;;;;;;4927689;28;20039;-87
2023/01/25 07:14:55;;;;;;;18.15;7.85;;;3.60;99.90;;;;;;4946690;28;20352;-86
2023/01/25 07:17:21;;;;;;;19.40;8.02;;;3.60;99.90;;;;;;4918462;28;20316;-86
2023/01/25 07:19:47;;;;;;;21.45;8.65;;;3.60;99.90;;;;;;4933131;28;20649;-86
2023/01/25 07:22:13;;;;;;;21.63;8.90;;;3.70;99.90;;;;;;4923186;28;20419;-86
2023/01/25 07:24:39;;;;;;;20.73;8.38;;;3.60;99.90;;;;;;4942668;28;20034;-86
2023/01/25 07:27:04;;;;;;;20.95;8.05;;;3.60;99.90;;;;;;4892839;28;20046;-86
2023/01/25 07:29:30;;;;;;;23.63;9.33;;;3.60;99.90;;;;;;4938392;28;21208;-86
2023/01/25 07:31:56;;;;;;;22.55;9.32;;;3.60;99.90;;;;;;4938837;28;20253;-86
2023/01/25 07:34:22;;;;;;;19.90;8.27;;;3.60;99.90;;;;;;4929860;28;20039;-86
2023/01/25 07:36:47;;;;;;;19.67;8.10;;;3.60;99.90;;;;;;4920620;28;20026;-87
2023/01/25 07:39:13;;;;;;;19.40;7.90;;;3.60;99.90;;;;;;4925118;28;20015;-86
2023/01/25 07:41:39;;;;;;;21.25;8.70;;;3.60;99.90;;;;;;4880269;28;20337;-86
2023/01/25 07:44:05;;;;;;;18.77;7.15;;;3.60;99.90;;;;;;4938384;28;20117;-86
2023/01/25 07:46:31;;;;;;;18.90;8.23;;;3.60;99.90;;;;;;4939050;28;20054;-86
2023/01/25 07:48:59;;;;;;;20.90;8.60;;;3.60;99.90;;;;;;4916129;28;20157;-86
2023/01/25 07:51:26;;;;;;;18.85;7.90;;;3.60;99.90;;;;;;4954791;28;20062;-86
2023/01/25 07:54:00;;;;;;;19.70;8.10;;;3.60;99.90;;;;;;4951801;28;20174;-86
2023/01/25 07:56:29;;;;;;;22.05;8.98;;;3.60;99.90;;;;;;4908866;28;20038;-86
2023/01/25 07:58:56;;;;;;;20.50;7.83;;;3.50;99.90;;;;;;4928850;28;20245;-86
2023/01/25 08:01:25;;;;;;;20.10;8.45;;;3.60;99.90;;;;;;4934821;28;20046;-86
2023/01/25 08:03:51;;;;;;;20.42;8.07;;;3.50;99.90;;;;;;4918724;28;20317;-86
2023/01/25 08:06:21;;;;;;;20.08;7.90;;;3.50;99.90;;;;;;4960570;28;20725;-85
2023/01/25 08:08:49;;;;;;;19.65;7.90;;;3.50;99.90;;;;;;4941821;28;20042;-85
2023/01/25 08:11:20;;;;;;;23.70;9.77;;;3.50;99.90;;;;;;4903468;28;20081;-86
2023/01/25 08:13:48;;;;;;;23.52;8.90;;;3.50;99.90;;;;;;4909479;28;20341;-85
2023/01/25 08:16:16;;;;;;;23.23;8.60;;;3.40;99.90;;;;;;4958657;28;20149;-85
2023/01/25 08:18:42;;;;;;;22.38;8.82;;;3.40;99.90;;;;;;4955688;28;20023;-86
2023/01/25 08:21:08;;;;;;;23.27;9.32;;;3.40;99.90;;;;;;4917318;28;20030;-86
2023/01/25 08:23:35;;;;;;;21.13;8.03;;;3.40;99.90;;;;;;4934413;28;20121;-86
2023/01/25 08:26:05;;;;;;;24.33;9.15;;;3.40;99.90;;;;;;4914095;28;20483;-86
2023/01/25 08:28:32;;;;;;;23.05;8.57;;;3.40;99.90;;;;;;4920647;28;20392;-86
2023/01/25 08:31:15;;;;;;;20.08;8.40;;;3.40;99.90;;;;;;4926057;28;20477;-86
2023/01/25 08:33:43;;;;;;;21.23;8.87;;;3.40;99.90;;;;;;4931950;28;20498;-86
2023/01/25 08:36:09;;;;;;;20.42;8.55;;;3.40;99.90;;;;;;4915550;28;20578;-86
2023/01/25 08:38:36;;;;;;;17.23;7.47;;;3.40;99.90;;;;;;4921083;28;20475;-86
2023/01/25 08:41:06;;;;;;;19.30;7.85;;;3.40;99.90;;;;;;4917063;28;20462;-86
2023/01/25 08:43:32;;;;;;;20.58;8.43;;;3.50;99.90;;;;;;4924103;28;20412;-86
2023/01/25 08:45:59;;;;;;;19.37;8.20;;;3.50;99.90;;;;;;4923683;28;20501;-85
2023/01/25 08:48:24;;;;;;;17.48;6.95;;;3.50;99.90;;;;;;4934557;28;20019;-86
2023/01/25 08:50:50;;;;;;;17.02;7.00;;;3.50;99.90;;;;;;4935303;28;20237;-85
2023/01/25 08:53:16;;;;;;;17.80;7.37;;;3.50;99.90;;;;;;4935978;28;20055;-86
2023/01/25 08:55:42;;;;;;;18.67;7.90;;;3.50;99.90;;;;;;4922497;28;20035;-85
2023/01/25 08:58:15;;;;;;;22.65;8.57;;;3.50;99.90;;;;;;4913750;28;20050;-86
2023/01/25 09:00:43;;;;;;;23.98;8.98;;;3.60;99.90;;;;;;4937133;28;20183;-86
2023/01/25 09:03:10;;;;;;;24.08;8.98;;;3.50;99.90;;;;;;4942420;28;20031;-86
2023/01/25 09:05:37;;;;;;;23.20;8.55;;;3.60;99.90;;;;;;4921685;28;20034;-86
2023/01/25 09:08:05;;;;;;;23.50;8.87;;;3.60;99.90;;;;;;4917437;28;20094;-86
2023/01/25 09:10:31;;;;;;;25.45;9.02;;;3.60;99.90;;;;;;4921897;28;20039;-86
2023/01/25 09:12:57;;;;;;;23.52;9.25;;;3.60;99.90;;;;;;4910553;28;20225;-86
2023/01/25 09:15:23;;;;;;;23.88;8.90;;;3.60;99.90;;;;;;4907438;28;20069;-86
2023/01/25 09:17:53;;;;;;;22.90;8.67;;;3.70;99.90;;;;;;4920185;28;20373;-86
2023/01/25 09:20:19;;;;;;;22.42;8.98;;;3.70;99.90;;;;;;4934941;28;20237;-86
2023/01/25 09:22:45;;;;;;;22.45;8.90;;;3.70;99.90;;;;;;4928375;28;20031;-86
2023/01/25 09:25:10;;;;;;;22.77;8.50;;;3.70;99.90;;;;;;4937729;28;20054;-85
2023/01/25 09:27:36;;;;;;;22.55;9.13;;;3.70;99.90;;;;;;4941032;28;20035;-86
2023/01/25 09:30:04;;;;;;;23.77;9.17;;;3.70;99.90;;;;;;4898433;28;21562;-86
2023/01/25 09:32:29;;;;;;;25.48;9.10;;;3.70;99.90;;;;;;4937455;28;20573;-86
2023/01/25 09:34:55;;;;;;;23.13;8.90;;;3.80;99.90;;;;;;4936135;28;20034;-86
2023/01/25 09:37:21;;;;;;;27.38;10.38;;;3.80;99.90;;;;;;4920465;28;20058;-86
2023/01/25 09:39:47;;;;;;;24.45;9.48;;;3.70;99.90;;;;;;4931171;28;20031;-86
2023/01/25 09:42:19;;;;;;;24.15;9.15;;;3.70;99.90;;;;;;4935349;28;20344;-86
2023/01/25 09:45:03;;;;;;;26.27;9.83;;;3.70;99.90;;;;;;4905688;28;20574;-86
2023/01/25 09:47:47;;;;;;;23.63;9.00;;;3.70;99.90;;;;;;4945473;28;20392;-86
2023/01/25 09:50:33;;;;;;;26.88;10.38;;;3.70;99.90;;;;;;4948395;28;20169;-86
2023/01/25 09:53:09;;;;;;;27.40;10.27;;;3.70;99.90;;;;;;4934996;28;20125;-86
2023/01/25 09:55:36;;;;;;;24.15;9.15;;;3.70;99.90;;;;;;4913958;29;20046;-86
2023/01/25 09:58:03;;;;;;;27.30;9.57;;;3.70;99.90;;;;;;4928878;28;20058;-86
2023/01/25 10:00:33;;;;;;;27.02;10.23;;;3.70;99.90;;;;;;4910669;28;20023;-86
2023/01/25 10:03:21;;;;;;;24.17;9.38;;;3.70;99.90;;;;;;4914610;28;20376;-86
2023/01/25 10:05:49;;;;;;;27.30;9.60;;;3.80;99.90;;;;;;4921674;29;20020;-86
2023/01/25 10:08:28;;;;;;;24.23;9.43;;;3.80;99.90;;;;;;4919171;29;20058;-87
2023/01/25 10:11:24;;;;;;;25.83;10.07;;;3.80;99.90;;;;;;4910778;28;20024;-86
2023/01/25 10:13:50;;;;;;;27.52;9.90;;;3.80;99.90;;;;;;4920482;29;20035;-86
2023/01/25 10:16:27;;;;;;;24.95;9.48;;;3.80;99.90;;;;;;4909710;28;20572;-86
2023/01/25 10:19:09;;;;;;;24.63;9.30;;;3.80;99.90;;;;;;4919331;28;20031;-87
2023/01/25 10:22:04;;;;;;;24.02;9.68;;;3.80;99.90;;;;;;4940060;28;20388;-86
2023/01/25 10:24:51;;;;;;;26.23;9.83;;;3.80;99.90;;;;;;4922746;29;20034;-86
2023/01/25 10:27:20;;;;;;;26.75;10.07;;;3.80;99.90;;;;;;4915964;28;20256;-86
2023/01/25 10:29:48;;;;;;;23.98;9.07;;;3.80;99.90;;;;;;4934182;28;20110;-86
2023/01/25 10:32:25;;;;;;;25.10;9.07;;;3.90;99.90;;;;;;4910160;28;20053;-86
2023/01/25 10:34:53;;;;;;;26.63;9.52;;;3.90;99.90;;;;;;4931533;28;20027;-86
2023/01/25 10:37:22;;;;;;;27.23;11.00;;;3.90;99.90;;;;;;4931694;28;20059;-87
2023/01/25 10:40:00;;;;;;;24.00;9.43;;;3.90;99.90;;;;;;4919017;28;20109;-86
2023/01/25 10:42:32;;;;;;;29.38;11.65;;;3.90;99.90;;;;;;4926693;28;20345;-87
2023/01/25 10:44:57;;;;;;;28.77;10.30;;;3.90;99.90;;;;;;4916410;28;20035;-86
2023/01/25 10:47:30;;;;;;;27.43;10.13;;;3.80;99.90;;;;;;4908565;28;20038;-86
2023/01/25 10:49:57;;;;;;;26.63;10.20;;;3.80;99.90;;;;;;4921756;28;20101;-86
2023/01/25 10:52:26;;;;;;;24.30;10.05;;;3.80;99.90;;;;;;4917496;29;20032;-86
2023/01/25 10:55:17;;;;;;;30.77;11.02;;;3.80;99.90;;;;;;4929329;28;20023;-86
2023/01/25 10:57:47;;;;;;;26.67;10.60;;;3.80;99.90;;;;;;4915488;28;20402;-86
2023/01/25 11:00:40;;;;;;;23.80;9.30;;;3.80;99.90;;;;;;4936086;28;20192;-86
2023/01/25 11:03:20;;;;;;;26.65;10.35;;;3.80;99.90;;;;;;4913883;28;20255;-86
2023/01/25 11:05:54;;;;;;;22.13;8.18;;;3.80;99.90;;;;;;4916503;28;20118;-86
2023/01/25 11:08:30;;;;;;;25.73;9.73;;;3.80;99.90;;;;;;4931729;28;20038;-86
2023/01/25 11:10:57;;;;;;;24.90;9.82;;;3.70;99.90;;;;;;4945010;28;20483;-86
2023/01/25 11:13:27;;;;;;;24.07;9.07;;;3.70;99.90;;;;;;4915133;29;20027;-86
2023/01/25 11:15:58;;;;;;;22.88;8.32;;;3.70;99.90;;;;;;4920496;28;20375;-86
2023/01/25 11:18:28;;;;;;;26.17;9.07;;;3.70;99.90;;;;;;4895212;29;20130;-86
2023/01/25 11:21:17;;;;;;;23.33;8.93;;;3.70;99.90;;;;;;4899907;29;20098;-86
2023/01/25 11:23:56;;;;;;;23.90;9.10;;;3.70;99.90;;;;;;4932500;28;20020;-86
2023/01/25 11:26:21;;;;;;;27.63;10.13;;;3.80;99.90;;;;;;4920553;29;20034;-86
2023/01/25 11:28:47;;;;;;;23.25;8.85;;;3.70;99.90;;;;;;4916592;28;20023;-86
2023/01/25 11:31:18;;;;;;;25.33;9.77;;;3.80;99.90;;;;;;4919868;29;20039;-86
2023/01/25 11:33:44;;;;;;;19.20;7.63;;;3.70;99.90;;;;;;4910767;28;20020;-86
2023/01/25 11:36:19;;;;;;;21.63;8.30;;;3.70;99.90;;;;;;4905796;29;20210;-86
2023/01/25 11:39:07;;;;;;;22.83;8.52;;;3.80;99.90;;;;;;4940664;28;20799;-86
2023/01/25 11:41:57;;;;;;;25.90;9.93;;;3.80;99.90;;;;;;4915812;29;20044;-86
2023/01/25 11:44:53;;;;;;;20.13;7.43;;;3.80;99.90;;;;;;4918630;29;20090;-86
2023/01/25 11:47:42;;;;;;;29.23;10.57;;;3.80;99.90;;;;;;4904598;29;20418;-87
2023/01/25 11:50:28;;;;;;;26.92;10.32;;;3.80;99.90;;;;;;4897698;29;20602;-86
2023/01/25 11:53:22;;;;;;;24.13;8.80;;;3.80;99.90;;;;;;4906964;29;20400;-86
2023/01/25 11:55:56;;;;;;;23.15;9.05;;;3.80;99.90;;;;;;4925592;28;20131;-86
2023/01/25 11:58:50;;;;;;;21.98;8.57;;;3.80;99.90;;;;;;4916499;29;20040;-86
2023/01/25 12:01:31;;;;;;;24.87;9.37;;;3.80;99.90;;;;;;4915163;29;20481;-86
2023/01/25 12:04:06;;;;;;;24.13;8.75;;;3.80;99.90;;;;;;4888531;29;20229;-86
2023/01/25 12:06:49;;;;;;;22.55;8.25;;;3.80;99.90;;;;;;4901043;29;20032;-86
2023/01/25 12:09:22;;;;;;;28.70;10.43;;;3.80;99.90;;;;;;4923549;29;20031;-86
2023/01/25 12:11:58;;;;;;;25.02;9.23;;;3.80;99.90;;;;;;4921413;28;20119;-86
2023/01/25 12:14:46;;;;;;;23.60;8.87;;;3.80;99.90;;;;;;4893350;29;20028;-86
2023/01/25 12:17:20;;;;;;;24.50;9.85;;;3.80;99.90;;;;;;4916106;29;20027;-86
2023/01/25 12:19:52;;;;;;;25.13;9.70;;;3.80;99.90;;;;;;4889921;29;20019;-86
2023/01/25 12:22:53;;;;;;;21.00;8.15;;;3.90;99.90;;;;;;4901396;29;20051;-86
2023/01/25 12:25:43;;;;;;;27.63;10.70;;;3.90;99.90;;;;;;4906794;29;20062;-87
2023/01/25 12:28:21;;;;;;;26.17;9.97;;;4.00;99.90;;;;;;4915573;29;20031;-88
2023/01/25 12:30:53;;;;;;;22.38;9.23;;;4.00;99.90;;;;;;4906999;29;20038;-87
2023/01/25 12:33:41;;;;;;;25.05;10.13;;;3.90;99.90;;;;;;4910417;29;20266;-86
2023/01/25 12:36:26;;;;;;;25.90;9.90;;;3.90;99.90;;;;;;4897330;29;20074;-86
2023/01/25 12:39:02;;;;;;;25.90;10.10;;;3.80;99.90;;;;;;4907316;29;20020;-87
2023/01/25 12:41:40;;;;;;;23.03;9.03;;;3.80;99.90;;;;;;4915756;28;20445;-87
2023/01/25 12:44:25;;;;;;;20.95;7.97;;;3.80;99.90;;;;;;4944568;28;20133;-87
2023/01/25 12:47:15;;;;;;;21.52;8.90;;;3.90;99.90;;;;;;4922693;28;20034;-86
2023/01/25 12:49:47;;;;;;;21.73;8.65;;;3.90;99.90;;;;;;4917029;28;20495;-86
2023/01/25 12:52:51;;;;;;;22.42;8.57;;;3.90;99.90;;;;;;4934099;28;20193;-86
2023/01/25 12:55:18;;;;;;;21.83;8.30;;;3.90;99.90;;;;;;4940411;28;20507;-86
2023/01/25 12:58:06;;;;;;;23.05;8.48;;;4.00;99.90;;;;;;4942774;28;20282;-86